Terminal Aerodrome Forecast
Issued by NWS

Home | Current Version | Previous Version | Text Only | Print | Product List | Glossary On
Versions: 1 2 3 4 5 6 7 8 9 10 11 12 13 14 15 16 17 18 19 20
751
FTUS43 KSGF 150520
TAFJLN
TAF
KJLN 150520Z 1506/1606 21012KT P6SM OVC130
     FM150800 23009KT P6SM VCSH OVC060
     FM150900 24008KT 4SM -SN BR OVC050
     FM151100 30008KT 3/4SM -SN BR OVC020
     FM151500 35012KT P6SM -SN OVC040
     FM151700 34012KT P6SM BKN050=

USA.gov is the U.S. government's official web portal to all federal, state and local government web resources and services.